createdAt,value
2022-10-13T00:01:59.896Z,8.10
2022-10-13T00:04:47.911Z,8.00
2022-10-13T00:07:37.159Z,8.00
2022-10-13T00:10:25.797Z,8.00
2022-10-13T00:13:14.125Z,8.00
2022-10-13T00:16:03.850Z,8.00
2022-10-13T00:18:51.928Z,8.00
2022-10-13T00:21:39.862Z,7.90
2022-10-13T00:24:29.196Z,7.90
2022-10-13T00:27:17.216Z,7.90
2022-10-13T00:30:06.054Z,7.90
2022-10-13T00:32:54.017Z,7.90
2022-10-13T00:35:43.123Z,7.80
2022-10-13T00:38:31.068Z,7.80
2022-10-13T00:41:21.302Z,7.80
2022-10-13T00:44:42.612Z,7.80
2022-10-13T00:47:36.387Z,7.80
2022-10-13T00:50:28.603Z,7.80
2022-10-13T00:53:19.131Z,7.80
2022-10-13T00:56:10.385Z,7.80
2022-10-13T00:59:01.416Z,7.90
2022-10-13T01:01:49.923Z,7.90
2022-10-13T01:04:42.127Z,7.90
2022-10-13T01:07:30.295Z,8.00
2022-10-13T01:10:26.070Z,8.00
2022-10-13T01:13:21.488Z,8.00
2022-10-13T01:16:14.754Z,8.00
2022-10-13T01:19:13.604Z,8.00
2022-10-13T01:22:16.268Z,8.00
2022-10-13T01:25:15.953Z,8.00
2022-10-13T01:28:24.385Z,7.90
2022-10-13T01:31:21.608Z,7.90
2022-10-13T01:34:16.429Z,7.90
2022-10-13T01:37:08.784Z,7.90
2022-10-13T01:40:03.653Z,7.90
2022-10-13T01:42:58.910Z,7.90
2022-10-13T01:45:53.255Z,7.80
2022-10-13T01:48:45.352Z,7.80
2022-10-13T01:51:34.801Z,7.80
2022-10-13T01:54:22.925Z,7.80
2022-10-13T01:57:31.586Z,7.70
2022-10-13T02:00:22.151Z,7.80
2022-10-13T02:03:18.676Z,7.80
2022-10-13T02:06:18.808Z,7.80
2022-10-13T02:09:15.101Z,7.80
2022-10-13T02:12:08.231Z,7.80
2022-10-13T02:14:57.569Z,7.70
2022-10-13T02:17:45.636Z,7.80
2022-10-13T02:20:34.537Z,7.70
2022-10-13T02:23:24.558Z,7.60
2022-10-13T02:26:13.664Z,7.50
2022-10-13T02:29:08.355Z,7.50
2022-10-13T02:31:56.469Z,7.40
2022-10-13T02:34:44.516Z,7.40
2022-10-13T02:37:32.525Z,7.40
2022-10-13T02:40:21.884Z,7.40
2022-10-13T02:43:09.962Z,7.40
2022-10-13T02:45:57.978Z,7.40
2022-10-13T02:48:46.042Z,7.40
2022-10-13T02:51:38.959Z,7.30
2022-10-13T02:54:28.301Z,7.30
2022-10-13T02:57:18.577Z,7.20
2022-10-13T03:00:08.113Z,7.20
2022-10-13T03:02:56.644Z,7.20
2022-10-13T03:05:45.224Z,7.30
2022-10-13T03:08:34.444Z,7.20
2022-10-13T03:11:22.602Z,7.30
2022-10-13T03:14:11.984Z,7.40
2022-10-13T03:16:59.982Z,7.40
2022-10-13T03:19:48.330Z,7.30
2022-10-13T03:22:36.398Z,7.30
2022-10-13T03:25:24.418Z,7.40
2022-10-13T03:28:12.505Z,7.50
2022-10-13T03:31:06.071Z,7.40
2022-10-13T03:33:54.700Z,7.40
2022-10-13T03:36:42.715Z,7.40
2022-10-13T03:39:30.734Z,7.40
2022-10-13T03:42:18.975Z,7.50
2022-10-13T03:45:08.400Z,7.50
2022-10-13T03:47:58.225Z,7.40
2022-10-13T03:50:46.384Z,7.40
2022-10-13T03:53:34.791Z,7.30
2022-10-13T03:56:24.437Z,7.30
2022-10-13T03:59:16.616Z,7.30
2022-10-13T04:02:04.800Z,7.30
2022-10-13T04:04:54.235Z,7.50
2022-10-13T04:07:42.276Z,7.40
2022-10-13T04:10:30.297Z,7.50
2022-10-13T04:13:18.367Z,7.40
2022-10-13T04:16:08.479Z,7.40
2022-10-13T04:18:58.723Z,7.30
2022-10-13T04:21:48.290Z,7.30
2022-10-13T04:24:36.312Z,7.30
2022-10-13T04:27:24.394Z,7.30
2022-10-13T04:30:13.661Z,7.30
2022-10-13T04:33:02.717Z,7.30
2022-10-13T04:35:50.848Z,7.30
2022-10-13T04:38:40.181Z,7.20
2022-10-13T04:41:28.209Z,7.20
2022-10-13T04:44:16.233Z,7.30
2022-10-13T04:47:04.271Z,7.20
2022-10-13T04:49:52.448Z,7.30
2022-10-13T04:52:40.497Z,7.30
2022-10-13T04:55:29.820Z,7.10
2022-10-13T04:58:17.814Z,7.20
2022-10-13T05:01:20.509Z,7.30
2022-10-13T05:04:10.897Z,7.30
2022-10-13T05:07:17.063Z,7.20
2022-10-13T05:10:06.378Z,7.20
2022-10-13T05:12:55.854Z,7.20
2022-10-13T05:15:43.843Z,7.20
2022-10-13T05:18:31.859Z,7.20
2022-10-13T05:21:22.157Z,7.10
2022-10-13T05:24:13.809Z,7.10
2022-10-13T05:27:01.831Z,7.10
2022-10-13T05:29:51.227Z,7.20
2022-10-13T05:32:39.250Z,7.20
2022-10-13T05:35:28.294Z,7.10
2022-10-13T05:38:16.309Z,7.10
2022-10-13T05:41:06.131Z,7.00
2022-10-13T05:43:57.382Z,7.00
2022-10-13T05:46:46.734Z,7.00
2022-10-13T05:49:36.394Z,7.00
2022-10-13T05:52:26.522Z,7.00
2022-10-13T05:55:18.903Z,7.00
2022-10-13T05:58:07.065Z,7.10
2022-10-13T06:00:55.287Z,6.90
2022-10-13T06:03:45.954Z,7.10
2022-10-13T06:06:34.064Z,7.10
2022-10-13T06:09:22.501Z,7.20
2022-10-13T06:12:11.264Z,7.30
2022-10-13T06:14:59.276Z,7.30
2022-10-13T06:17:47.432Z,7.30
2022-10-13T06:20:37.425Z,7.40
2022-10-13T06:23:25.571Z,7.50
2022-10-13T06:26:13.593Z,7.50
2022-10-13T06:29:01.822Z,7.50
2022-10-13T06:31:50.886Z,7.60
2022-10-13T06:34:39.124Z,7.60
2022-10-13T06:37:28.580Z,7.70
2022-10-13T06:40:17.157Z,7.80
2022-10-13T06:43:05.788Z,7.80
2022-10-13T06:45:53.970Z,7.80
2022-10-13T06:48:42.126Z,7.90
2022-10-13T06:51:30.206Z,8.00
2022-10-13T06:54:19.796Z,8.00
2022-10-13T06:57:08.073Z,8.00
2022-10-13T06:59:56.130Z,8.00
2022-10-13T07:02:44.232Z,8.00
2022-10-13T07:05:33.178Z,8.00
2022-10-13T07:08:22.093Z,8.10
2022-10-13T07:11:16.331Z,8.20
2022-10-13T07:14:04.707Z,8.40
2022-10-13T07:16:52.811Z,8.40
2022-10-13T07:19:41.362Z,8.60
2022-10-13T07:22:29.454Z,8.60
2022-10-13T07:25:17.822Z,8.70
2022-10-13T07:28:07.217Z,8.80
2022-10-13T07:30:55.541Z,8.90
2022-10-13T07:33:45.729Z,9.00
2022-10-13T07:36:35.692Z,9.00
2022-10-13T07:39:23.790Z,9.10
2022-10-13T07:42:12.091Z,9.20
2022-10-13T07:45:01.457Z,9.40
2022-10-13T07:47:49.474Z,9.60
2022-10-13T07:50:37.736Z,9.80
2022-10-13T07:53:25.891Z,10.00
2022-10-13T07:56:16.355Z,10.10
2022-10-13T07:59:05.257Z,10.10
2022-10-13T08:01:54.761Z,10.40
2022-10-13T08:04:42.950Z,10.60
2022-10-13T08:07:31.067Z,10.70
2022-10-13T08:10:19.275Z,10.80
2022-10-13T08:13:07.474Z,10.90
2022-10-13T08:15:55.543Z,11.00
2022-10-13T08:18:46.006Z,11.00
2022-10-13T08:24:42.133Z,11.20
2022-10-13T08:27:49.747Z,11.40
2022-10-13T08:30:38.918Z,11.60
2022-10-13T08:33:28.116Z,11.70
2022-10-13T08:36:18.061Z,11.80
2022-10-13T08:39:06.200Z,11.90
2022-10-13T08:41:56.353Z,11.90
2022-10-13T08:45:21.740Z,12.00
2022-10-13T08:48:00.022Z,12.00
2022-10-13T08:50:52.457Z,12.20
2022-10-13T08:53:44.812Z,12.20
2022-10-13T08:56:35.865Z,12.30
2022-10-13T08:59:24.497Z,12.40
2022-10-13T09:02:16.322Z,12.40
2022-10-13T09:05:10.622Z,12.50
2022-10-13T09:08:00.518Z,12.60
2022-10-13T09:10:51.736Z,12.60
2022-10-13T09:13:40.173Z,12.70
2022-10-13T09:16:34.849Z,12.90
2022-10-13T09:19:26.583Z,13.00
2022-10-13T09:22:17.283Z,13.10
2022-10-13T09:25:23.993Z,13.20
2022-10-13T09:28:19.395Z,11.50
2022-10-13T09:31:14.740Z,13.30
2022-10-13T09:34:13.309Z,13.40
2022-10-13T09:37:03.302Z,13.60
2022-10-13T09:40:03.244Z,13.70
2022-10-13T09:42:52.629Z,13.80
2022-10-13T09:45:44.352Z,13.90
2022-10-13T09:48:35.335Z,14.00
2022-10-13T09:51:37.340Z,14.20
2022-10-13T09:54:28.552Z,14.30
2022-10-13T09:57:24.724Z,14.60
2022-10-13T10:00:17.987Z,14.60
2022-10-13T10:03:15.752Z,14.70
2022-10-13T10:06:07.965Z,14.80
2022-10-13T10:09:04.236Z,14.80
2022-10-13T10:11:55.984Z,14.90
2022-10-13T10:14:44.182Z,15.00
2022-10-13T10:17:41.362Z,15.00
2022-10-13T10:21:02.722Z,15.10
2022-10-13T10:24:21.215Z,15.20
2022-10-13T10:27:33.485Z,15.50
2022-10-13T10:30:54.597Z,15.50
2022-10-13T10:33:57.361Z,15.70
2022-10-13T10:36:59.428Z,15.90
2022-10-13T10:40:06.333Z,15.90
2022-10-13T10:43:30.318Z,16.10
2022-10-13T10:46:26.591Z,16.20
2022-10-13T10:49:25.438Z,16.20
2022-10-13T10:52:26.155Z,16.20
2022-10-13T10:55:26.190Z,16.20
2022-10-13T10:58:28.157Z,16.20
2022-10-13T11:01:28.544Z,16.20
2022-10-13T11:04:40.419Z,16.10
2022-10-13T11:08:00.658Z,16.10
2022-10-13T11:10:49.430Z,16.10
2022-10-13T11:13:59.025Z,16.10
2022-10-13T11:17:12.367Z,16.20
2022-10-13T11:20:48.876Z,16.20
2022-10-13T11:23:47.951Z,16.30
2022-10-13T11:26:47.780Z,16.30
2022-10-13T11:29:55.275Z,16.40
2022-10-13T11:33:09.362Z,16.40
2022-10-13T11:36:00.742Z,16.50
2022-10-13T11:39:03.322Z,16.60
2022-10-13T11:41:59.593Z,16.50
2022-10-13T11:44:55.798Z,16.60
2022-10-13T11:48:21.118Z,16.70
2022-10-13T11:51:26.132Z,16.70
2022-10-13T11:54:27.291Z,16.80
2022-10-13T11:57:26.679Z,16.90
2022-10-13T12:00:23.021Z,17.00
2022-10-13T12:03:34.708Z,17.00
2022-10-13T12:06:37.978Z,17.10
2022-10-13T12:09:29.227Z,17.20
2022-10-13T12:12:22.108Z,17.20
2022-10-13T12:15:37.669Z,17.20
2022-10-13T12:18:34.174Z,17.10
2022-10-13T12:21:32.161Z,17.10
2022-10-13T12:24:27.377Z,17.10
2022-10-13T12:27:24.133Z,17.10
2022-10-13T12:30:26.623Z,17.10
2022-10-13T12:33:30.304Z,16.40
2022-10-13T12:36:21.518Z,17.00
2022-10-13T12:39:15.965Z,17.10
2022-10-13T12:42:23.141Z,17.00
2022-10-13T12:45:20.559Z,17.10
2022-10-13T12:48:31.039Z,16.90
2022-10-13T12:51:34.116Z,17.00
2022-10-13T12:54:30.050Z,17.00
2022-10-13T12:57:35.490Z,17.00
2022-10-13T13:00:28.354Z,17.00
2022-10-13T13:03:28.875Z,17.00
2022-10-13T13:06:37.386Z,17.00
2022-10-13T13:09:29.754Z,17.00
2022-10-13T13:12:28.854Z,16.90
2022-10-13T13:15:39.615Z,16.80
2022-10-13T13:18:41.905Z,16.70
2022-10-13T13:21:30.748Z,16.70
2022-10-13T13:24:35.700Z,16.70
2022-10-13T13:27:33.061Z,16.70
2022-10-13T13:30:23.536Z,16.80
2022-10-13T13:33:13.506Z,16.90
2022-10-13T13:36:09.320Z,17.00
2022-10-13T13:39:00.274Z,17.10
2022-10-13T13:41:51.898Z,17.30
2022-10-13T13:44:40.422Z,17.40
2022-10-13T13:47:32.592Z,17.60
2022-10-13T13:50:47.379Z,17.80
2022-10-13T13:53:51.059Z,18.20
2022-10-13T13:56:42.813Z,18.50
2022-10-13T13:59:39.993Z,19.00
2022-10-13T14:02:32.938Z,19.80
2022-10-13T14:05:27.724Z,20.90
2022-10-13T14:08:20.965Z,21.70
2022-10-13T14:11:12.542Z,22.40
2022-10-13T14:14:07.042Z,22.70
2022-10-13T14:16:55.559Z,22.60
2022-10-13T14:19:46.191Z,22.40
2022-10-13T14:22:38.607Z,22.00
2022-10-13T14:25:27.046Z,22.30
2022-10-13T14:28:23.453Z,24.10
2022-10-13T14:31:20.782Z,24.40
2022-10-13T14:34:18.092Z,24.80
2022-10-13T14:37:19.782Z,25.30
2022-10-13T14:40:15.022Z,25.20
2022-10-13T14:43:12.382Z,24.90
2022-10-13T14:46:07.381Z,24.10
2022-10-13T14:48:58.439Z,22.80
2022-10-13T14:51:51.719Z,21.60
2022-10-13T14:54:43.922Z,19.70
2022-10-13T14:57:34.249Z,19.60
2022-10-13T15:00:22.365Z,19.00
2022-10-13T15:03:10.969Z,18.50
2022-10-13T15:06:00.088Z,18.20
2022-10-13T15:08:49.212Z,17.90
2022-10-13T15:11:37.515Z,17.80
2022-10-13T15:14:26.907Z,17.70
2022-10-13T15:17:14.945Z,17.40
2022-10-13T15:20:03.771Z,17.40
2022-10-13T15:22:54.225Z,16.20
2022-10-13T15:25:50.009Z,17.20
2022-10-13T15:28:39.775Z,17.10
2022-10-13T15:31:30.884Z,17.00
2022-10-13T15:34:18.888Z,16.90
2022-10-13T15:37:06.912Z,16.90
2022-10-13T15:39:57.580Z,16.80
2022-10-13T15:42:45.939Z,16.80
2022-10-13T15:45:34.011Z,16.70
2022-10-13T15:48:23.656Z,16.60
2022-10-13T15:51:15.678Z,16.50
2022-10-13T15:54:03.758Z,16.40
2022-10-13T15:56:51.745Z,16.40
2022-10-13T15:59:39.754Z,16.30
2022-10-13T16:02:27.876Z,16.30
2022-10-13T16:05:17.262Z,16.20
2022-10-13T16:08:05.617Z,16.10
2022-10-13T16:10:53.643Z,16.00
2022-10-13T16:13:42.401Z,15.90
2022-10-13T16:16:30.415Z,15.80
2022-10-13T16:19:18.397Z,15.70
2022-10-13T16:22:07.776Z,15.70
2022-10-13T16:24:55.793Z,15.50
2022-10-13T16:27:44.696Z,15.30
2022-10-13T16:30:32.839Z,15.30
2022-10-13T16:33:20.864Z,15.30
2022-10-13T16:36:11.017Z,15.20
2022-10-13T16:39:01.326Z,15.10
2022-10-13T16:41:49.433Z,15.00
2022-10-13T16:44:37.431Z,15.00
2022-10-13T16:47:25.722Z,14.80
2022-10-13T16:50:13.775Z,14.90
2022-10-13T16:53:01.772Z,14.70
2022-10-13T16:55:51.094Z,14.70
2022-10-13T16:58:43.640Z,14.60
2022-10-13T17:01:32.900Z,14.60
2022-10-13T17:04:22.230Z,14.50
2022-10-13T17:07:10.467Z,14.50
2022-10-13T17:09:58.445Z,14.40
2022-10-13T17:12:48.466Z,14.30
2022-10-13T17:15:36.447Z,14.20
2022-10-13T17:18:24.777Z,14.20
2022-10-13T17:21:14.873Z,14.20
2022-10-13T17:24:02.888Z,14.10
2022-10-13T17:26:51.191Z,14.10
2022-10-13T17:29:40.472Z,14.00
2022-10-13T17:32:28.473Z,14.00
2022-10-13T17:35:18.020Z,13.90
2022-10-13T17:38:06.140Z,13.90
2022-10-13T17:40:59.511Z,13.90
2022-10-13T17:43:47.730Z,13.80
2022-10-13T17:46:39.034Z,13.70
2022-10-13T17:49:27.549Z,13.70
2022-10-13T17:52:15.601Z,13.70
2022-10-13T17:55:03.626Z,13.60
2022-10-13T17:57:51.759Z,13.60
2022-10-13T18:01:00.732Z,13.60
2022-10-13T18:03:51.286Z,13.50
2022-10-13T18:06:43.601Z,13.50
2022-10-13T18:09:31.611Z,13.50
2022-10-13T18:12:19.845Z,13.40
2022-10-13T18:15:08.887Z,13.40
2022-10-13T18:17:56.996Z,13.40
2022-10-13T18:20:46.318Z,13.40
2022-10-13T18:23:35.426Z,13.40
2022-10-13T18:26:24.789Z,13.30
2022-10-13T18:29:13.481Z,13.30
2022-10-13T18:32:01.514Z,13.20
2022-10-13T18:34:49.567Z,13.20
2022-10-13T18:37:38.898Z,13.30
2022-10-13T18:40:28.493Z,13.20
2022-10-13T18:43:16.506Z,13.20
2022-10-13T18:46:05.638Z,13.10
2022-10-13T18:48:53.689Z,13.10
2022-10-13T18:51:42.353Z,13.10
2022-10-13T18:54:32.210Z,13.10
2022-10-13T18:57:20.501Z,13.00
2022-10-13T19:00:10.320Z,13.00
2022-10-13T19:02:58.343Z,12.90
2022-10-13T19:05:46.330Z,12.90
2022-10-13T19:08:34.680Z,12.80
2022-10-13T19:11:24.465Z,12.70
2022-10-13T19:14:14.035Z,12.70
2022-10-13T19:17:02.528Z,12.70
2022-10-13T19:19:50.582Z,12.60
2022-10-13T19:22:38.610Z,12.60
2022-10-13T19:25:26.671Z,12.50
2022-10-13T19:28:16.541Z,12.50
2022-10-13T19:31:10.812Z,12.50
2022-10-13T19:33:59.823Z,12.40
2022-10-13T19:36:48.397Z,12.40
2022-10-13T19:39:36.406Z,12.40
2022-10-13T19:42:24.457Z,12.30
2022-10-13T19:45:14.031Z,12.30
2022-10-13T19:48:02.047Z,12.20
2022-10-13T19:50:50.105Z,12.20
2022-10-13T19:53:39.758Z,12.30
2022-10-13T19:56:31.293Z,12.20
2022-10-13T19:59:19.808Z,12.10
2022-10-13T20:02:10.418Z,12.00
2022-10-13T20:04:58.418Z,12.00
2022-10-13T20:07:46.411Z,12.00
2022-10-13T20:10:34.499Z,12.00
2022-10-13T20:13:22.505Z,11.90
2022-10-13T20:16:13.491Z,11.90
2022-10-13T20:19:03.031Z,11.90
2022-10-13T20:21:52.880Z,11.90
2022-10-13T20:24:40.861Z,11.90
2022-10-13T20:27:28.882Z,11.80
2022-10-13T20:30:16.992Z,11.80
2022-10-13T20:33:05.119Z,11.80
2022-10-13T20:35:58.630Z,11.80
2022-10-13T20:38:48.617Z,11.80
2022-10-13T20:41:36.943Z,11.70
2022-10-13T20:44:24.974Z,11.70
2022-10-13T20:47:13.366Z,11.70
2022-10-13T20:50:01.498Z,11.60
2022-10-13T20:52:50.837Z,11.60
2022-10-13T20:55:41.899Z,11.60
2022-10-13T20:58:32.282Z,11.70
2022-10-13T21:01:22.226Z,11.60
2022-10-13T21:04:11.208Z,11.40
2022-10-13T21:06:59.509Z,11.50
2022-10-13T21:09:53.452Z,11.50
2022-10-13T21:12:41.893Z,11.50
2022-10-13T21:15:30.071Z,11.50
2022-10-13T21:18:18.111Z,11.40
2022-10-13T21:21:07.527Z,11.40
2022-10-13T21:23:58.064Z,11.30
2022-10-13T21:26:47.442Z,11.30
2022-10-13T21:29:35.453Z,11.30
2022-10-13T21:32:23.461Z,11.20
2022-10-13T21:35:11.655Z,11.20
2022-10-13T21:37:59.657Z,11.20
2022-10-13T21:40:53.012Z,11.10
2022-10-13T21:43:43.336Z,11.10
2022-10-13T21:46:34.081Z,11.10
2022-10-13T21:49:22.074Z,11.00
2022-10-13T21:52:10.524Z,10.90
2022-10-13T21:54:58.530Z,10.90
2022-10-13T21:57:46.554Z,10.80
2022-10-13T22:00:35.876Z,10.90
2022-10-13T22:03:23.926Z,10.90
2022-10-13T22:06:18.449Z,10.90
2022-10-13T22:09:07.766Z,10.80
2022-10-13T22:11:56.685Z,10.80
2022-10-13T22:14:44.759Z,10.80
2022-10-13T22:17:34.227Z,10.80
2022-10-13T22:20:22.457Z,10.70
2022-10-13T22:23:10.449Z,10.70
2022-10-13T22:25:58.476Z,10.70
2022-10-13T22:28:48.157Z,10.70
2022-10-13T22:31:36.941Z,10.80
2022-10-13T22:34:27.322Z,10.60
2022-10-13T22:37:15.326Z,10.60
2022-10-13T22:40:03.390Z,10.60
2022-10-13T22:42:51.798Z,10.50
2022-10-13T22:45:39.773Z,10.50
2022-10-13T22:48:27.781Z,10.50
2022-10-13T22:51:19.539Z,10.40
2022-10-13T22:54:07.607Z,10.40
2022-10-13T22:56:55.632Z,10.40
2022-10-13T22:59:43.655Z,10.40
2022-10-13T23:02:31.841Z,10.40
2022-10-13T23:05:19.826Z,10.40
2022-10-13T23:08:09.515Z,10.40
2022-10-13T23:10:57.923Z,10.30
2022-10-13T23:13:46.426Z,10.30
2022-10-13T23:16:35.090Z,10.30
2022-10-13T23:19:23.111Z,10.30
2022-10-13T23:22:11.114Z,10.20
2022-10-13T23:25:00.437Z,10.20
2022-10-13T23:27:48.476Z,10.30
2022-10-13T23:30:37.549Z,10.20
2022-10-13T23:33:25.579Z,10.10
2022-10-13T23:36:17.420Z,10.10
2022-10-13T23:39:07.509Z,10.10
2022-10-13T23:41:56.861Z,10.10
2022-10-13T23:44:44.862Z,10.00
2022-10-13T23:47:32.876Z,9.90
2022-10-13T23:50:20.877Z,9.90
2022-10-13T23:53:08.887Z,9.90
2022-10-13T23:55:56.889Z,9.90
2022-10-13T23:58:46.400Z,10.00
